createdAt,value
2022-10-08T00:01:26.510Z,13.45
2022-10-08T00:03:56.821Z,13.44
2022-10-08T00:06:26.993Z,13.44
2022-10-08T00:08:58.618Z,13.44
2022-10-08T00:11:28.427Z,13.43
2022-10-08T00:13:57.285Z,13.43
2022-10-08T00:16:27.513Z,13.40
2022-10-08T00:18:58.696Z,13.37
2022-10-08T00:21:29.908Z,13.35
2022-10-08T00:24:01.427Z,13.32
2022-10-08T00:26:31.662Z,13.31
2022-10-08T00:29:01.638Z,13.32
2022-10-08T00:31:32.433Z,13.30
2022-10-08T00:34:02.977Z,13.30
2022-10-08T00:36:32.824Z,13.28
2022-10-08T00:39:04.153Z,13.28
2022-10-08T00:41:35.957Z,13.27
2022-10-08T00:44:24.079Z,13.26
2022-10-08T00:46:52.904Z,13.24
2022-10-08T00:49:25.192Z,13.24
2022-10-08T00:51:56.829Z,13.23
2022-10-08T00:54:26.373Z,13.24
2022-10-08T00:56:55.454Z,13.21
2022-10-08T00:59:23.432Z,13.23
2022-10-08T01:01:52.881Z,13.25
2022-10-08T01:04:20.867Z,13.27
2022-10-08T01:06:56.039Z,13.31
2022-10-08T01:09:30.771Z,13.33
2022-10-08T01:12:07.693Z,13.37
2022-10-08T01:14:47.458Z,13.40
2022-10-08T01:17:24.228Z,13.40
2022-10-08T01:20:14.044Z,13.42
2022-10-08T01:23:00.232Z,13.41
2022-10-08T01:25:38.691Z,13.40
2022-10-08T01:28:13.679Z,13.39
2022-10-08T01:30:49.773Z,13.38
2022-10-08T01:33:24.353Z,13.36
2022-10-08T01:35:58.681Z,13.35
2022-10-08T01:38:31.602Z,13.35
2022-10-08T01:41:03.642Z,13.31
2022-10-08T01:43:36.420Z,13.27
2022-10-08T01:46:18.953Z,13.20
2022-10-08T01:48:51.070Z,13.16
2022-10-08T01:51:23.979Z,13.15
2022-10-08T01:53:53.306Z,13.16
2022-10-08T01:56:25.894Z,13.15
2022-10-08T01:58:59.670Z,13.13
2022-10-08T02:01:34.095Z,13.10
2022-10-08T02:04:19.873Z,13.06
2022-10-08T02:06:54.538Z,13.03
2022-10-08T02:09:24.103Z,12.98
2022-10-08T02:11:52.295Z,12.93
2022-10-08T02:14:24.489Z,12.90
2022-10-08T02:16:59.554Z,12.88
2022-10-08T02:19:32.776Z,12.84
2022-10-08T02:22:02.600Z,12.80
2022-10-08T02:24:38.086Z,12.78
2022-10-08T02:27:09.413Z,12.74
2022-10-08T02:29:41.389Z,12.73
2022-10-08T02:32:15.609Z,12.72
2022-10-08T02:34:49.105Z,12.70
2022-10-08T02:37:21.140Z,12.67
2022-10-08T02:39:55.717Z,12.66
2022-10-08T02:42:25.832Z,12.64
2022-10-08T02:45:00.559Z,12.63
2022-10-08T02:47:33.600Z,12.60
2022-10-08T02:50:06.276Z,12.60
2022-10-08T02:52:39.487Z,12.60
2022-10-08T02:55:20.655Z,12.57
2022-10-08T02:57:56.136Z,12.56
2022-10-08T03:00:27.985Z,12.54
2022-10-08T03:03:01.182Z,12.54
2022-10-08T03:05:30.111Z,12.57
2022-10-08T03:08:00.064Z,12.60
2022-10-08T03:10:30.928Z,12.60
2022-10-08T03:13:02.078Z,12.57
2022-10-08T03:15:33.212Z,12.54
2022-10-08T03:18:03.593Z,12.54
2022-10-08T03:20:33.035Z,12.52
2022-10-08T03:23:02.868Z,12.53
2022-10-08T03:25:30.740Z,12.55
2022-10-08T03:27:58.752Z,12.54
2022-10-08T03:30:26.698Z,12.54
2022-10-08T03:32:55.971Z,12.51
2022-10-08T03:35:23.824Z,12.49
2022-10-08T03:37:53.696Z,12.47
2022-10-08T03:40:22.224Z,12.46
2022-10-08T03:42:51.939Z,12.47
2022-10-08T03:45:19.884Z,12.45
2022-10-08T03:47:51.847Z,12.44
2022-10-08T03:50:21.400Z,12.42
2022-10-08T03:52:49.550Z,12.42
2022-10-08T03:55:18.046Z,12.44
2022-10-08T03:57:45.933Z,12.43
2022-10-08T04:00:14.435Z,12.45
2022-10-08T04:02:42.369Z,12.45
2022-10-08T04:05:10.681Z,12.44
2022-10-08T04:07:39.976Z,12.43
2022-10-08T04:22:30.947Z,12.17
2022-10-08T04:25:00.273Z,12.15
2022-10-08T04:27:28.324Z,12.16
2022-10-08T04:29:56.290Z,12.16
2022-10-08T04:32:24.277Z,12.17
2022-10-08T04:34:52.183Z,12.18
2022-10-08T04:37:20.391Z,12.18
2022-10-08T04:39:48.344Z,12.18
2022-10-08T04:42:17.667Z,12.18
2022-10-08T04:44:45.689Z,12.20
2022-10-08T04:47:13.598Z,12.19
2022-10-08T04:49:41.494Z,12.20
2022-10-08T04:52:10.038Z,12.22
2022-10-08T04:54:38.138Z,12.24
2022-10-08T04:57:06.085Z,12.25
2022-10-08T04:59:35.421Z,12.23
2022-10-08T05:02:03.584Z,12.22
2022-10-08T05:04:31.514Z,12.21
2022-10-08T05:06:59.457Z,12.18
2022-10-08T05:09:27.427Z,12.16
2022-10-08T05:11:55.364Z,12.14
2022-10-08T05:14:23.339Z,12.12
2022-10-08T05:16:52.836Z,12.10
2022-10-08T05:19:20.757Z,12.06
2022-10-08T05:21:48.744Z,12.05
2022-10-08T05:24:16.735Z,12.06
2022-10-08T05:26:59.863Z,12.04
2022-10-08T05:29:28.476Z,12.01
2022-10-08T05:31:57.929Z,11.97
2022-10-08T05:34:25.980Z,11.94
2022-10-08T05:36:54.015Z,11.92
2022-10-08T05:39:27.334Z,11.90
2022-10-08T05:41:55.240Z,11.88
2022-10-08T05:44:23.214Z,11.86
2022-10-08T05:46:51.223Z,11.84
2022-10-08T05:49:22.889Z,11.80
2022-10-08T05:51:51.801Z,11.80
2022-10-08T05:54:20.216Z,11.76
2022-10-08T05:56:48.172Z,11.73
2022-10-08T05:59:18.709Z,11.70
2022-10-08T06:01:46.874Z,11.65
2022-10-08T06:04:15.215Z,11.59
2022-10-08T06:06:44.940Z,11.56
2022-10-08T06:09:15.276Z,11.53
2022-10-08T06:11:43.671Z,11.53
2022-10-08T06:14:12.841Z,11.53
2022-10-08T06:16:41.713Z,11.51
2022-10-08T06:19:10.925Z,11.47
2022-10-08T06:21:38.939Z,11.44
2022-10-08T06:24:10.314Z,11.38
2022-10-08T06:26:39.967Z,11.33
2022-10-08T06:29:08.964Z,11.27
2022-10-08T06:31:37.427Z,11.22
2022-10-08T06:34:06.169Z,11.17
2022-10-08T06:36:36.841Z,11.13
2022-10-08T06:39:07.379Z,11.10
2022-10-08T06:41:36.829Z,11.09
2022-10-08T06:44:06.748Z,11.06
2022-10-08T06:46:35.226Z,11.07
2022-10-08T06:49:06.006Z,11.09
2022-10-08T06:51:37.061Z,11.12
2022-10-08T06:54:08.190Z,11.18
2022-10-08T06:56:38.822Z,11.24
2022-10-08T06:59:07.631Z,11.28
2022-10-08T07:01:36.334Z,11.30
2022-10-08T07:04:05.785Z,11.31
2022-10-08T07:06:33.812Z,11.28
2022-10-08T07:09:03.015Z,11.26
2022-10-08T07:11:32.165Z,11.24
2022-10-08T07:14:01.834Z,11.22
2022-10-08T07:16:29.998Z,11.21
2022-10-08T07:18:59.418Z,11.23
2022-10-08T07:21:28.624Z,11.27
2022-10-08T07:23:57.504Z,11.27
2022-10-08T07:26:28.110Z,11.21
2022-10-08T07:28:58.237Z,11.13
2022-10-08T07:31:29.936Z,11.08
2022-10-08T07:33:58.242Z,11.04
2022-10-08T07:36:27.151Z,11.05
2022-10-08T07:38:55.685Z,11.05
2022-10-08T07:41:23.945Z,11.05
2022-10-08T07:43:53.119Z,11.06
2022-10-08T07:46:21.876Z,11.07
2022-10-08T07:48:51.899Z,11.09
2022-10-08T07:51:21.722Z,11.11
2022-10-08T07:53:50.051Z,11.12
2022-10-08T07:56:20.197Z,11.15
2022-10-08T07:58:49.116Z,11.17
2022-10-08T08:01:18.741Z,11.19
2022-10-08T08:03:46.769Z,11.21
2022-10-08T08:06:17.946Z,11.24
2022-10-08T08:08:46.965Z,11.26
2022-10-08T08:11:18.088Z,11.29
2022-10-08T08:13:46.352Z,11.31
2022-10-08T08:16:16.248Z,11.33
2022-10-08T08:18:46.166Z,11.37
2022-10-08T08:21:17.679Z,11.38
2022-10-08T08:23:47.305Z,11.42
2022-10-08T08:26:17.150Z,11.45
2022-10-08T08:28:45.767Z,11.48
2022-10-08T08:31:16.169Z,11.52
2022-10-08T08:33:48.531Z,11.56
2022-10-08T08:36:18.849Z,11.60
2022-10-08T08:38:47.317Z,11.63
2022-10-08T08:41:31.311Z,11.67
2022-10-08T08:44:00.434Z,11.72
2022-10-08T08:46:31.241Z,11.76
2022-10-08T08:49:05.870Z,11.81
2022-10-08T08:51:35.718Z,11.87
2022-10-08T08:54:04.037Z,11.92
2022-10-08T08:56:34.190Z,11.98
2022-10-08T08:59:14.366Z,12.03
2022-10-08T09:01:45.255Z,12.11
2022-10-08T09:04:23.814Z,12.18
2022-10-08T09:06:54.896Z,12.29
2022-10-08T09:09:28.273Z,12.44
2022-10-08T09:11:56.784Z,12.59
2022-10-08T09:14:35.536Z,12.70
2022-10-08T09:17:14.098Z,12.75
2022-10-08T09:19:42.357Z,12.77
2022-10-08T09:22:21.093Z,12.78
2022-10-08T09:24:52.990Z,12.80
2022-10-08T09:27:21.010Z,12.86
2022-10-08T09:29:49.018Z,12.95
2022-10-08T09:32:21.799Z,13.11
2022-10-08T09:34:50.356Z,13.33
2022-10-08T09:37:25.279Z,13.56
2022-10-08T09:40:19.706Z,13.78
2022-10-08T09:43:11.016Z,13.93
2022-10-08T09:45:44.070Z,14.05
2022-10-08T09:48:21.890Z,14.18
2022-10-08T09:50:55.918Z,14.32
2022-10-08T09:53:28.792Z,14.46
2022-10-08T09:56:00.326Z,14.60
2022-10-08T09:58:32.137Z,14.72
2022-10-08T10:01:04.272Z,14.89
2022-10-08T10:03:33.604Z,15.07
2022-10-08T10:06:02.067Z,15.24
2022-10-08T10:08:48.657Z,15.38
2022-10-08T10:11:23.299Z,15.47
2022-10-08T10:13:52.162Z,15.56
2022-10-08T10:16:25.867Z,15.68
2022-10-08T10:18:58.565Z,15.84
2022-10-08T10:21:34.862Z,16.04
2022-10-08T10:24:24.097Z,16.23
2022-10-08T10:26:57.048Z,16.37
2022-10-08T10:29:33.384Z,16.46
2022-10-08T10:32:06.353Z,16.46
2022-10-08T10:34:38.621Z,16.36
2022-10-08T10:37:13.329Z,16.17
2022-10-08T10:39:49.437Z,16.00
2022-10-08T10:42:25.581Z,15.91
2022-10-08T10:44:55.917Z,15.81
2022-10-08T10:47:31.798Z,15.77
2022-10-08T10:50:02.869Z,15.76
2022-10-08T10:52:42.455Z,15.76
2022-10-08T10:55:22.822Z,15.72
2022-10-08T10:58:12.736Z,15.72
2022-10-08T11:00:48.443Z,15.70
2022-10-08T11:03:24.888Z,15.64
2022-10-08T11:05:59.079Z,15.61
2022-10-08T11:08:35.501Z,15.56
2022-10-08T11:11:30.783Z,15.43
2022-10-08T11:14:15.016Z,15.33
2022-10-08T11:16:55.288Z,15.21
2022-10-08T11:19:34.589Z,15.11
2022-10-08T11:22:12.359Z,15.11
2022-10-08T11:24:51.974Z,15.24
2022-10-08T11:27:29.792Z,15.31
2022-10-08T11:30:06.391Z,15.42
2022-10-08T11:32:35.274Z,15.68
2022-10-08T11:35:21.832Z,15.85
2022-10-08T11:37:55.729Z,16.02
2022-10-08T11:40:33.209Z,16.25
2022-10-08T11:43:07.974Z,16.52
2022-10-08T11:45:40.019Z,16.72
2022-10-08T11:48:30.889Z,16.61
2022-10-08T11:51:32.065Z,16.59
2022-10-08T11:54:14.076Z,16.79
2022-10-08T11:56:45.691Z,16.79
2022-10-08T11:59:35.927Z,16.92
2022-10-08T12:02:07.802Z,16.94
2022-10-08T12:04:37.808Z,16.96
2022-10-08T12:07:17.391Z,17.02
2022-10-08T12:10:25.423Z,17.07
2022-10-08T12:13:05.397Z,16.87
2022-10-08T12:16:11.722Z,16.91
2022-10-08T12:18:49.701Z,17.01
2022-10-08T12:21:54.051Z,17.17
2022-10-08T12:24:55.381Z,17.28
2022-10-08T12:27:39.352Z,17.33
2022-10-08T12:30:10.615Z,17.29
2022-10-08T12:32:57.089Z,17.47
2022-10-08T12:35:36.734Z,17.64
2022-10-08T12:38:16.323Z,17.72
2022-10-08T12:40:51.398Z,17.85
2022-10-08T12:43:27.218Z,17.98
2022-10-08T12:46:08.092Z,18.07
2022-10-08T12:48:44.104Z,18.30
2022-10-08T12:51:24.625Z,18.42
2022-10-08T12:53:53.312Z,18.54
2022-10-08T12:56:26.430Z,18.66
2022-10-08T12:58:57.228Z,18.77
2022-10-08T13:01:26.560Z,18.81
2022-10-08T13:06:33.189Z,18.97
2022-10-08T13:09:02.221Z,18.89
2022-10-08T13:11:30.190Z,19.13
2022-10-08T13:13:59.460Z,19.18
2022-10-08T13:16:28.645Z,19.14
2022-10-08T13:18:58.827Z,19.45
2022-10-08T13:21:39.115Z,19.56
2022-10-08T13:24:34.411Z,19.70
2022-10-08T13:27:02.396Z,19.78
2022-10-08T13:29:33.428Z,19.76
2022-10-08T13:32:04.697Z,19.93
2022-10-08T13:34:36.175Z,19.84
2022-10-08T13:37:09.114Z,20.06
2022-10-08T13:39:39.730Z,19.87
2022-10-08T13:42:10.537Z,19.87
2022-10-08T13:44:40.115Z,20.01
2022-10-08T13:47:13.062Z,20.10
2022-10-08T13:49:41.588Z,20.04
2022-10-08T13:52:16.051Z,20.01
2022-10-08T13:54:44.280Z,20.08
2022-10-08T13:57:12.231Z,19.92
2022-10-08T13:59:40.391Z,20.00
2022-10-08T14:02:09.083Z,20.02
2022-10-08T14:04:37.100Z,20.10
2022-10-08T14:07:05.437Z,20.04
2022-10-08T14:09:34.977Z,20.14
2022-10-08T14:12:05.318Z,20.12
2022-10-08T14:14:33.486Z,20.00
2022-10-08T14:17:01.637Z,20.10
2022-10-08T14:19:29.632Z,20.17
2022-10-08T14:21:58.197Z,20.11
2022-10-08T14:24:26.171Z,20.04
2022-10-08T14:26:55.706Z,20.18
2022-10-08T14:29:23.656Z,20.18
2022-10-08T14:31:51.792Z,20.08
2022-10-08T14:34:19.780Z,19.89
2022-10-08T14:36:50.102Z,19.97
2022-10-08T14:39:18.104Z,19.82
2022-10-08T14:41:46.050Z,19.77
2022-10-08T14:44:16.969Z,19.68
2022-10-08T14:46:45.063Z,19.67
2022-10-08T14:49:13.005Z,19.72
2022-10-08T14:51:40.942Z,19.81
2022-10-08T14:54:10.509Z,20.01
2022-10-08T14:56:38.797Z,20.01
2022-10-08T14:59:07.055Z,19.93
2022-10-08T15:01:37.512Z,19.74
2022-10-08T15:04:05.802Z,19.91
2022-10-08T15:06:34.144Z,20.05
2022-10-08T15:09:02.190Z,20.24
2022-10-08T15:11:30.182Z,20.13
2022-10-08T15:13:59.271Z,19.91
2022-10-08T15:16:27.486Z,19.97
2022-10-08T15:18:56.985Z,19.92
2022-10-08T15:21:24.958Z,19.87
2022-10-08T15:23:52.887Z,19.91
2022-10-08T15:26:21.278Z,19.86
2022-10-08T15:28:52.960Z,19.81
2022-10-08T15:31:23.847Z,19.69
2022-10-08T15:33:53.427Z,19.52
2022-10-08T15:36:24.042Z,19.41
2022-10-08T15:38:58.203Z,19.37
2022-10-08T15:41:27.674Z,19.32
2022-10-08T15:43:56.204Z,19.23
2022-10-08T15:46:26.163Z,19.13
2022-10-08T15:48:55.518Z,19.08
2022-10-08T15:51:25.581Z,19.09
2022-10-08T15:53:53.536Z,19.18
2022-10-08T15:56:21.772Z,19.25
2022-10-08T15:58:51.182Z,19.20
2022-10-08T16:01:22.442Z,19.12
2022-10-08T16:03:52.870Z,19.15
2022-10-08T16:06:22.476Z,19.29
2022-10-08T16:08:51.936Z,19.45
2022-10-08T16:11:22.299Z,19.51
2022-10-08T16:13:52.345Z,19.56
2022-10-08T16:16:21.204Z,19.55
2022-10-08T16:18:52.878Z,19.50
2022-10-08T16:21:21.395Z,19.33
2022-10-08T16:23:51.066Z,19.16
2022-10-08T16:26:21.550Z,18.94
2022-10-08T16:28:51.177Z,18.59
2022-10-08T16:31:20.183Z,18.48
2022-10-08T16:33:48.833Z,18.34
2022-10-08T16:36:16.771Z,18.13
2022-10-08T16:38:44.817Z,17.92
2022-10-08T16:41:18.391Z,17.74
2022-10-08T16:43:49.299Z,17.60
2022-10-08T16:46:19.071Z,17.43
2022-10-08T16:48:52.467Z,17.22
2022-10-08T16:51:21.027Z,17.02
2022-10-08T16:53:49.851Z,16.88
2022-10-08T16:56:19.645Z,16.73
2022-10-08T16:58:52.323Z,16.60
2022-10-08T17:01:20.869Z,16.46
2022-10-08T17:03:50.033Z,16.35
2022-10-08T17:06:19.075Z,16.26
2022-10-08T17:08:47.073Z,16.16
2022-10-08T17:11:16.736Z,16.07
2022-10-08T17:13:47.834Z,16.00
2022-10-08T17:16:16.881Z,15.93
2022-10-08T17:18:45.444Z,15.85
2022-10-08T17:21:14.764Z,15.78
2022-10-08T17:23:43.698Z,15.71
2022-10-08T17:26:13.484Z,15.66
2022-10-08T17:28:43.500Z,15.59
2022-10-08T17:31:15.062Z,15.52
2022-10-08T17:33:44.151Z,15.45
2022-10-08T17:36:14.610Z,15.39
2022-10-08T17:38:44.179Z,15.32
2022-10-08T17:41:14.103Z,15.24
2022-10-08T17:43:42.821Z,15.18
2022-10-08T17:46:12.364Z,15.12
2022-10-08T17:48:42.185Z,15.07
2022-10-08T17:51:13.155Z,15.01
2022-10-08T17:53:41.088Z,14.93
2022-10-08T17:56:11.208Z,14.84
2022-10-08T17:58:39.778Z,14.79
2022-10-08T18:01:10.239Z,14.72
2022-10-08T18:03:40.541Z,14.66
2022-10-08T18:06:11.542Z,14.62
2022-10-08T18:08:39.814Z,14.57
2022-10-08T18:11:10.289Z,14.53
2022-10-08T18:13:38.665Z,14.47
2022-10-08T18:16:08.243Z,14.41
2022-10-08T18:18:36.670Z,14.34
2022-10-08T18:21:05.301Z,14.29
2022-10-08T18:23:36.459Z,14.24
2022-10-08T18:26:16.772Z,14.19
2022-10-08T18:28:44.950Z,14.13
2022-10-08T18:31:15.318Z,14.10
2022-10-08T18:33:44.988Z,14.04
2022-10-08T18:36:14.907Z,13.99
2022-10-08T18:38:46.124Z,13.95
2022-10-08T18:41:16.240Z,13.91
2022-10-08T18:43:45.728Z,13.87
2022-10-08T18:46:14.598Z,13.84
2022-10-08T18:48:42.639Z,13.81
2022-10-08T18:51:12.778Z,13.78
2022-10-08T18:53:45.204Z,13.74
2022-10-08T18:56:15.694Z,13.73
2022-10-08T18:58:43.724Z,13.68
2022-10-08T19:01:19.622Z,13.65
2022-10-08T19:03:48.918Z,13.58
2022-10-08T19:06:17.804Z,13.55
2022-10-08T19:08:48.707Z,13.49
2022-10-08T19:11:18.645Z,13.43
2022-10-08T19:13:46.667Z,13.39
2022-10-08T19:16:16.377Z,13.35
2022-10-08T19:18:45.742Z,13.33
2022-10-08T19:21:14.898Z,13.29
2022-10-08T19:23:42.952Z,13.26
2022-10-08T19:26:13.750Z,13.21
2022-10-08T19:28:46.523Z,13.16
2022-10-08T19:31:16.361Z,13.11
2022-10-08T19:33:44.727Z,13.07
2022-10-08T19:36:12.834Z,13.02
2022-10-08T19:38:40.755Z,12.98
2022-10-08T19:41:09.567Z,12.95
2022-10-08T19:43:39.277Z,12.92
2022-10-08T19:46:08.038Z,12.86
2022-10-08T19:48:36.077Z,12.83
2022-10-08T19:51:05.411Z,12.81
2022-10-08T19:53:34.206Z,12.76
2022-10-08T19:56:04.996Z,12.74
2022-10-08T19:58:33.262Z,12.69
2022-10-08T20:01:05.065Z,12.64
2022-10-08T20:03:34.268Z,12.60
2022-10-08T20:06:03.208Z,12.57
2022-10-08T20:08:31.334Z,12.56
2022-10-08T20:11:02.917Z,12.55
2022-10-08T20:13:31.006Z,12.52
2022-10-08T20:16:05.024Z,12.46
2022-10-08T20:18:33.265Z,12.46
2022-10-08T20:21:02.579Z,12.45
2022-10-08T20:23:30.616Z,12.46
2022-10-08T20:26:09.172Z,12.46
2022-10-08T20:28:37.942Z,12.46
2022-10-08T20:31:12.679Z,12.44
2022-10-08T20:33:41.554Z,12.41
2022-10-08T20:36:10.438Z,12.36
2022-10-08T20:38:39.042Z,12.32
2022-10-08T20:41:07.897Z,12.29
2022-10-08T20:43:37.779Z,12.24
2022-10-08T20:46:07.778Z,12.20
2022-10-08T20:48:38.624Z,12.19
2022-10-08T20:51:08.896Z,12.16
2022-10-08T20:53:37.366Z,12.13
2022-10-08T20:56:05.852Z,12.09
2022-10-08T20:58:34.549Z,12.08
2022-10-08T21:01:08.748Z,12.04
2022-10-08T21:03:39.061Z,12.00
2022-10-08T21:06:08.628Z,11.96
2022-10-08T21:08:37.990Z,11.94
2022-10-08T21:11:07.209Z,11.91
2022-10-08T21:13:36.454Z,11.88
2022-10-08T21:16:06.371Z,11.86
2022-10-08T21:18:35.384Z,11.81
2022-10-08T21:21:06.028Z,11.78
2022-10-08T21:23:34.770Z,11.74
2022-10-08T21:26:10.700Z,11.70
2022-10-08T21:28:38.753Z,11.67
2022-10-08T21:31:08.162Z,11.64
2022-10-08T21:33:37.122Z,11.59
2022-10-08T21:36:07.620Z,11.56
2022-10-08T21:38:38.586Z,11.54
2022-10-08T21:41:12.223Z,11.51
2022-10-08T21:43:40.569Z,11.47
2022-10-08T21:46:10.086Z,11.42
2022-10-08T21:48:39.185Z,11.39
2022-10-08T21:51:10.936Z,11.34
2022-10-08T21:53:40.898Z,11.29
2022-10-08T21:56:11.620Z,11.27
2022-10-08T21:58:42.174Z,11.24
2022-10-08T22:01:20.746Z,11.21
2022-10-08T22:03:48.806Z,11.20
2022-10-08T22:06:18.171Z,11.17
2022-10-08T22:08:46.126Z,11.16
2022-10-08T22:11:14.287Z,11.12
2022-10-08T22:13:42.351Z,11.09
2022-10-08T22:16:13.092Z,11.06
2022-10-08T22:18:41.518Z,11.05
2022-10-08T22:21:13.764Z,11.05
2022-10-08T22:23:43.243Z,11.03
2022-10-08T22:26:13.820Z,11.00
2022-10-08T22:28:42.248Z,11.00
2022-10-08T22:31:11.821Z,10.96
2022-10-08T22:33:40.022Z,10.93
2022-10-08T22:36:09.432Z,10.91
2022-10-08T22:38:39.914Z,10.86
2022-10-08T22:41:10.936Z,10.85
2022-10-08T22:43:40.021Z,10.81
2022-10-08T22:46:09.698Z,10.77
2022-10-08T22:48:37.953Z,10.74
2022-10-08T22:51:08.154Z,10.71
2022-10-08T22:53:36.381Z,10.69
2022-10-08T22:56:05.527Z,10.68
2022-10-08T22:58:35.509Z,10.66
2022-10-08T23:01:06.726Z,10.63
2022-10-08T23:03:35.205Z,10.61
2022-10-08T23:06:05.492Z,10.60
2022-10-08T23:08:34.130Z,10.58
2022-10-08T23:26:09.187Z,10.47
2022-10-08T23:28:38.929Z,10.46
2022-10-08T23:31:08.560Z,10.46
2022-10-08T23:33:38.201Z,10.45
2022-10-08T23:36:07.166Z,10.44
2022-10-08T23:38:35.974Z,10.41
2022-10-08T23:41:06.065Z,10.40
2022-10-08T23:43:37.544Z,10.35
2022-10-08T23:46:06.469Z,10.33
2022-10-08T23:48:34.675Z,10.29
2022-10-08T23:51:03.157Z,10.27
2022-10-08T23:53:31.491Z,10.26
2022-10-08T23:55:59.506Z,10.22
2022-10-08T23:58:27.565Z,10.21
